OITM  Sahand  Airport

Maragheh, Iran

Add Bookmark
ICAO OITM
IATA ACP
Type Airport
Status Operational
Latitude
37° 20' 52" N
37.348000
Longitude
46° 7' 40" E
46.127899
Local (GMT +4.5 ) UTC
Jul 25, 2016 10:36 am Jul 25, 2016 06:06
Sunrise-Sunset Local UTC
Begin Civil Twilight 05:53 am 01:23
Sunrise 06:23 am 01:53
Sunset 08:40 pm 16:10
End Civil Twilight 09:10 pm 16:40
VFR
VFR
MVFR
MVFR
IFR
IFR
LIFR
LIFR
Unknown
Unavailable

Current Weather

METAR Observed VFR
OITM 141800Z 00000KT 9999 SCT030 25/10 Q1012 Thu, Jul 14, 2016 @ 18:00 UTC
(1 Week, 3 Days, 12 Hours, 6 Minutes ago)
Visual Flight Rules
Wind Visibility Clouds Conditions
Calm 10 km or more
  • Scattered at 3,000 ft AGL
  • No significant weather
Temperatures Readings Precipitation
Current Temp
25°C
77°F
Dewpoint
10°C
50°F
Humidity 39%
Altimeter 29.88" Hg
Sea Level Pressure 1,012 mb
Field Elevation
1,340 m
4,396 ft
None Recorded
-
-

CheckWX.com is intended as a tool to help pilots better visualize weather data. It is not intended as a substitute for an official weather briefing obtained from a Flight Service Station. CheckWX.com does not meet the FAA requirements for an official pre-flight weather briefing. Therefore, it's important that pilots still call and obtain an official FSS pre-flight weather briefing.

© 2007-2016 CheckWX.com
06:06:26 UTC